KMGJ/MGJ METAR and TAF weather

Enter ICAO airport designator
Station Type Date Time Source
KMGJ METAR 2024/02/26 16:54 UTC NOAA

KMGJ 261654Z AUTO 23009KT CLR 07/M01 A2999 RMK AO2 SLP159 T00721011 $


Station Type Date Time Source
KMGJ Decoded METAR 2024/02/26 16:54 UTC NOAA

MONTGOMERY ORANGE CO AIRPORT, NY, United States (KMGJ) 41-31N 074-16W 108M
Feb 26, 2024 - 11:54 AM EST / 2024.02.26 1654 UTC
Wind: from the SW (230 degrees) at 10 MPH (9 KT):0
Sky conditions: clear
Temperature: 45.0 F (7.2 C)
Dew Point: 30.0 F (-1.1 C)
Relative Humidity: 55%
Pressure (altimeter): 29.99 in. Hg (1015 hPa)
ob: KMGJ 261654Z AUTO 23009KT CLR 07/M01 A2999 RMK AO2 SLP159 T00721011
cycle: 17

Station Type Date Time Source
KMGJ TAF UTC NOAA

Error!

Example: see airport list